Flight Track Log - Related Links

Times and Time Zones

All times are in EDT time to prevent confusion due to time zone crossing. See the N93XP flight status page for this flight to view local times or setup timezone preferences in your user account.

Time Position Orientation Groundspeed Altitude Reporting Facility
EDT Latitude Longitude Course Direction KTS MPH feet Rate Location/Type
Fri 04:21:23 PM 30.8053 -97.4300 60° Northeast 285 328 10,800  Level Houston Center
Fri 04:22:25 PM 30.8475 -97.3414 61° Northeast 308 354 12,600 1,548 Climbing Houston Center
Fri 04:23:27 PM 30.8906 -97.2528 60° Northeast 317 365 14,000 1,065 Climbing Houston Center
Fri 04:24:29 PM 30.9317 -97.1650 61° Northeast 319 367 14,800 677 Climbing Houston Center
Fri 04:25:31 PM 30.9814 -97.0711 58° Northeast 297 342 15,400 242 Climbing Houston Center
Fri 04:26:33 PM 31.0197 -96.9928 60° Northeast 282 325 15,300 48 Descending Houston Center
Fri 04:27:36 PM 31.0669 -96.9592 31° Northeast 259 298 15,500 48 Climbing Houston Center
Fri 04:28:38 PM 31.0856 -96.9928 303° West 258 297 15,400  Descending Houston Center
Fri 04:30:14 PM 31.1203 -96.8989 67° East 157 181 15,500 38 Climbing Fort Worth Center
Fri 04:31:14 PM 31.1453 -96.8381 64° Northeast 190 219 15,500 -67 Level Fort Worth Center
Fri 04:31:44 PM 31.1575 -96.8136 60° Northeast 191 220 15,400 -65 Descending Houston Center
Fri 04:32:46 PM 31.2003 -96.7889 26° Northeast 197 227 15,400  Level Houston Center
Fri 04:33:48 PM 31.2206 -96.7353 66° East 185 213 15,400 48 Level Houston Center
Fri 04:34:50 PM 31.2428 -96.6842 63° Northeast 193 222 15,500 97 Climbing Houston Center
Fri 04:35:52 PM 31.2825 -96.6022 60° Northeast 287 330 15,600 -48 Climbing Houston Center
Fri 04:36:54 PM 31.3333 -96.5042 59° Northeast 343 395 15,400 -48 Descending Houston Center
Fri 04:37:57 PM 31.3869 -96.4022 58° Northeast 363 418 15,500  Climbing Houston Center
Fri 04:38:59 PM 31.4386 -96.2700 65° Northeast 382 440 15,400 -48 Descending Houston Center
Fri 04:40:01 PM 31.4961 -96.1631 58° Northeast 384 442 15,400  Level Houston Center
Fri 04:41:03 PM 31.5583 -96.0614 54° Northeast 375 432 15,400  Level Houston Center
Fri 04:42:05 PM 31.6200 -95.9633 54° Northeast 374 430 15,400 -194 Level Houston Center
Fri 04:43:07 PM 31.6747 -95.8575 59° Northeast 377 434 15,000 -1,161 Descending Houston Center
Fri 04:44:09 PM 31.7142 -95.7464 67° East 372 428 13,000 -1,935 Descending Houston Center
Fri 04:45:11 PM 31.7492 -95.6392 69° East 355 409 11,000 -2,016 Descending Houston Center
Fri 04:46:14 PM 31.7564 -95.5175 86° East 331 381 8,800 -1,756 Descending Fort Worth Center
Fri 04:47:14 PM 31.7531 -95.4197 92° East 313 360 7,400 -1,500 Descending Fort Worth Center
Fri 04:48:14 PM 31.7347 -95.3347 104° East 286 329 5,800 -1,400 Descending Fort Worth Center
Fri 04:49:14 PM 31.7169 -95.2594 105° East 257 296 4,600 -850 Descending Fort Worth Center
Fri 04:50:14 PM 31.6969 -95.1889 108° East 236 272 4,100 -750 Descending Fort Worth Center
Fri 04:51:14 PM 31.6894 -95.1233 98° East 218 251 3,100 -450 Descending Fort Worth Center
Fri 04:52:14 PM 31.7264 -95.0883 39° Northeast 163 188 3,200  Climbing Fort Worth Center
Fri 04:53:14 PM 31.7553 -95.0753 21° North 125 144 3,100 -100 Descending Fort Worth Center

Login

Don't have an account? Register now (free) for customized features, flight alerts, and more!